Time;durP1;ratioP1;P1;durP2;ratioP2;P2;SDS_P1;SDS_P2;PMS_P1;PMS_P2;Temp;Humidity;BMP_temperature;BMP_pressure;BME280_temperature;BME280_humidity;BME280_pressure;Samples;Min_cycle;Max_cycle;Signal;HPM_P1;HPM_P2
2023/09/17 00:00:19;;;;;;;2.05;1.67;;;;;;;;;;1023638;28;20029;-75
2023/09/17 00:00:50;;;;;;;2.10;2.00;;;;;;;;;;1021480;29;20062;-75
2023/09/17 00:01:23;;;;;;;1.92;1.83;;;;;;;;;;1021591;29;20030;-76
2023/09/17 00:01:53;;;;;;;3.75;1.33;;;;;;;;;;1021579;29;20090;-75
2023/09/17 00:02:24;;;;;;;3.63;2.17;;;;;;;;;;1021518;29;20532;-75
2023/09/17 00:02:55;;;;;;;2.00;1.75;;;;;;;;;;1017130;28;20081;-76
2023/09/17 00:03:26;;;;;;;1.92;1.83;;;;;;;;;;1017050;29;20024;-76
2023/09/17 00:03:57;;;;;;;6.22;2.13;;;;;;;;;;1017985;29;20019;-75
2023/09/17 00:04:27;;;;;;;0.57;0.57;;;;;;;;;;1017233;29;20060;-75
2023/09/17 00:04:58;;;;;;;1.50;1.00;;;;;;;;;;1020210;29;20030;-75
2023/09/17 00:05:28;;;;;;;1.27;1.23;;;;;;;;;;1021139;29;20380;-76
2023/09/17 00:05:59;;;;;;;2.95;2.08;;;;;;;;;;1021076;29;20456;-75
2023/09/17 00:06:29;;;;;;;2.10;1.40;;;;;;;;;;1019453;29;20023;-76
2023/09/17 00:07:00;;;;;;;6.18;3.17;;;;;;;;;;1020566;29;20035;-75
2023/09/17 00:07:30;;;;;;;1.55;1.38;;;;;;;;;;1020326;29;20046;-75
2023/09/17 00:08:01;;;;;;;2.78;1.90;;;;;;;;;;1021278;29;20038;-75
2023/09/17 00:08:31;;;;;;;1.98;1.88;;;;;;;;;;1021056;29;21242;-76
2023/09/17 00:09:03;;;;;;;2.72;1.90;;;;;;;;;;1021204;29;20126;-76
2023/09/17 00:09:33;;;;;;;7.07;2.92;;;;;;;;;;1019659;29;20035;-75
2023/09/17 00:10:04;;;;;;;3.80;2.85;;;;;;;;;;1017198;29;20378;-75
2023/09/17 00:10:35;;;;;;;1.77;0.65;;;;;;;;;;1017335;29;20050;-75
2023/09/17 00:11:06;;;;;;;2.35;2.20;;;;;;;;;;1017242;29;20504;-76
2023/09/17 00:11:37;;;;;;;1.70;1.60;;;;;;;;;;1033664;28;20028;-75
2023/09/17 00:12:07;;;;;;;11.63;3.03;;;;;;;;;;1033240;28;20402;-75
2023/09/17 00:12:38;;;;;;;4.20;1.98;;;;;;;;;;1029470;28;20011;-76
2023/09/17 00:13:09;;;;;;;2.55;2.35;;;;;;;;;;1029925;28;20046;-75
2023/09/17 00:13:41;;;;;;;6.03;4.35;;;;;;;;;;1033103;28;20025;-76
2023/09/17 00:14:11;;;;;;;3.92;1.25;;;;;;;;;;1017882;29;20107;-77
2023/09/17 00:14:42;;;;;;;4.03;3.65;;;;;;;;;;1017138;29;20491;-77
2023/09/17 00:15:13;;;;;;;4.07;1.48;;;;;;;;;;1034379;28;20027;-76
2023/09/17 00:15:43;;;;;;;2.15;1.80;;;;;;;;;;1033287;28;20035;-76
2023/09/17 00:16:14;;;;;;;7.03;2.63;;;;;;;;;;1032765;28;20033;-77
2023/09/17 00:16:45;;;;;;;2.45;2.25;;;;;;;;;;1037586;28;20033;-76
2023/09/17 00:17:15;;;;;;;4.32;2.17;;;;;;;;;;1021478;29;20411;-76
2023/09/17 00:17:46;;;;;;;3.42;2.95;;;;;;;;;;1021429;29;20025;-76
2023/09/17 00:18:16;;;;;;;0.70;0.70;;;;;;;;;;1020990;29;20027;-76
2023/09/17 00:18:47;;;;;;;0.45;0.45;;;;;;;;;;1021026;29;20369;-75
2023/09/17 00:19:19;;;;;;;4.32;3.85;;;;;;;;;;1021348;29;20059;-75
2023/09/17 00:19:49;;;;;;;2.65;2.45;;;;;;;;;;1020087;29;20084;-75
2023/09/17 00:20:20;;;;;;;3.65;1.98;;;;;;;;;;1020558;29;20069;-75
2023/09/17 00:20:51;;;;;;;1.48;1.38;;;;;;;;;;1021154;29;20024;-75
2023/09/17 00:21:21;;;;;;;2.15;2.05;;;;;;;;;;1020286;29;20027;-76
2023/09/17 00:21:52;;;;;;;2.30;2.10;;;;;;;;;;1021040;29;20026;-77
2023/09/17 00:22:22;;;;;;;3.05;2.60;;;;;;;;;;1016866;29;20052;-77
2023/09/17 00:22:53;;;;;;;1.58;1.48;;;;;;;;;;1014980;29;20067;-77
2023/09/17 00:23:23;;;;;;;1.58;1.48;;;;;;;;;;1017903;29;20028;-76
2023/09/17 00:23:54;;;;;;;0.35;0.35;;;;;;;;;;1016841;29;20175;-76
2023/09/17 00:24:24;;;;;;;2.60;1.63;;;;;;;;;;1021335;29;20026;-76
2023/09/17 00:24:55;;;;;;;1.83;1.65;;;;;;;;;;1017173;29;20086;-76
2023/09/17 00:25:25;;;;;;;3.78;2.08;;;;;;;;;;1017470;29;20065;-77
2023/09/17 00:25:56;;;;;;;5.80;1.67;;;;;;;;;;1017130;29;20098;-76
2023/09/17 00:26:26;;;;;;;2.10;1.40;;;;;;;;;;1016924;29;20478;-76
2023/09/17 00:26:57;;;;;;;1.25;1.15;;;;;;;;;;1021017;29;20027;-76
2023/09/17 00:27:27;;;;;;;2.97;2.40;;;;;;;;;;1022180;29;20020;-77
2023/09/17 00:27:58;;;;;;;3.70;2.05;;;;;;;;;;1016806;29;20039;-76
2023/09/17 00:28:29;;;;;;;2.08;1.67;;;;;;;;;;1016676;29;20020;-76
2023/09/17 00:29:00;;;;;;;4.90;0.95;;;;;;;;;;1017211;29;20028;-75
2023/09/17 00:29:31;;;;;;;1.67;1.58;;;;;;;;;;1017962;28;20111;-76
2023/09/17 00:30:01;;;;;;;0.82;0.80;;;;;;;;;;1021515;29;20369;-76
2023/09/17 00:30:32;;;;;;;3.85;2.60;;;;;;;;;;1021440;29;20077;-75
2023/09/17 00:31:02;;;;;;;3.42;2.15;;;;;;;;;;1020131;28;20026;-75
2023/09/17 00:31:34;;;;;;;0.30;0.30;;;;;;;;;;1021125;29;20106;-76
2023/09/17 00:32:04;;;;;;;0.32;0.32;;;;;;;;;;1016662;29;20027;-76
2023/09/17 00:32:35;;;;;;;1.40;1.33;;;;;;;;;;1017894;29;20063;-77
2023/09/17 00:33:05;;;;;;;1.88;1.48;;;;;;;;;;1016811;29;20123;-74
2023/09/17 00:33:36;;;;;;;4.15;1.65;;;;;;;;;;1016974;29;20028;-77
2023/09/17 00:34:06;;;;;;;2.38;2.17;;;;;;;;;;1021397;29;20020;-76
2023/09/17 00:34:37;;;;;;;1.67;1.58;;;;;;;;;;1021435;29;20034;-76
2023/09/17 00:35:07;;;;;;;0.85;0.85;;;;;;;;;;1020485;29;20413;-76
2023/09/17 00:35:38;;;;;;;0.75;0.75;;;;;;;;;;1019500;29;20022;-77
2023/09/17 00:36:08;;;;;;;2.13;2.03;;;;;;;;;;1021451;29;20027;-77
2023/09/17 00:36:39;;;;;;;1.65;1.55;;;;;;;;;;1016186;29;20499;-77
2023/09/17 00:37:10;;;;;;;2.17;2.08;;;;;;;;;;1033601;28;20104;-77
2023/09/17 00:37:41;;;;;;;3.88;2.65;;;;;;;;;;1032109;28;20104;-77
2023/09/17 00:38:12;;;;;;;10.85;1.02;;;;;;;;;;1033468;28;20022;-77
2023/09/17 00:38:42;;;;;;;3.35;1.75;;;;;;;;;;1037803;28;20417;-76
2023/09/17 00:39:13;;;;;;;1.67;1.20;;;;;;;;;;1020586;29;20402;-76
2023/09/17 00:39:43;;;;;;;2.42;1.55;;;;;;;;;;1017146;29;20114;-77
2023/09/17 00:40:14;;;;;;;1.88;1.75;;;;;;;;;;1017097;29;20476;-77
2023/09/17 00:40:44;;;;;;;5.38;1.27;;;;;;;;;;1013736;29;20423;-77
2023/09/17 00:41:15;;;;;;;3.03;2.25;;;;;;;;;;1012879;29;20025;-76
2023/09/17 00:41:45;;;;;;;2.50;0.80;;;;;;;;;;1033620;28;20030;-77
2023/09/17 00:42:16;;;;;;;2.55;2.35;;;;;;;;;;1033727;28;20040;-77
2023/09/17 00:42:46;;;;;;;1.77;1.50;;;;;;;;;;1037796;28;20493;-76
2023/09/17 00:43:18;;;;;;;2.85;2.35;;;;;;;;;;1037217;28;20017;-77
2023/09/17 00:43:48;;;;;;;1.48;1.35;;;;;;;;;;1016764;29;20090;-75
2023/09/17 00:44:19;;;;;;;4.38;2.20;;;;;;;;;;1016774;29;20028;-76
2023/09/17 00:44:50;;;;;;;2.13;1.45;;;;;;;;;;1017058;29;20092;-77
2023/09/17 00:45:20;;;;;;;1.90;1.77;;;;;;;;;;1033182;28;20812;-76
2023/09/17 00:45:50;;;;;;;0.98;0.95;;;;;;;;;;1037333;28;20029;-77
2023/09/17 00:46:21;;;;;;;2.25;2.05;;;;;;;;;;1037701;28;20545;-75
2023/09/17 00:46:51;;;;;;;3.90;2.72;;;;;;;;;;1036866;28;20493;-76
2023/09/17 00:47:22;;;;;;;7.30;2.72;;;;;;;;;;1021032;29;20027;-75
2023/09/17 00:47:52;;;;;;;1.20;1.20;;;;;;;;;;1021317;29;20114;-75
2023/09/17 00:48:26;;;;;;;3.08;2.75;;;;;;;;;;1021374;29;20028;-75
2023/09/17 00:48:56;;;;;;;3.00;1.67;;;;;;;;;;1021422;29;20081;-77
2023/09/17 00:49:27;;;;;;;32.67;2.72;;;;;;;;;;1021546;29;20041;-76
2023/09/17 00:49:59;;;;;;;1.88;1.73;;;;;;;;;;1021262;29;20027;-76
2023/09/17 00:50:31;;;;;;;1.00;1.00;;;;;;;;;;1020890;29;20493;-76
2023/09/17 00:51:03;;;;;;;3.13;2.55;;;;;;;;;;1016344;29;20028;-75
2023/09/17 00:51:34;;;;;;;6.65;2.83;;;;;;;;;;1017117;29;20062;-77
2023/09/17 00:52:11;;;;;;;1.65;1.55;;;;;;;;;;1012124;29;20074;-76
2023/09/17 00:52:42;;;;;;;1.20;1.08;;;;;;;;;;1013891;29;20508;-77
2023/09/17 00:53:13;;;;;;;1.65;1.38;;;;;;;;;;1010045;28;20025;-76
2023/09/17 00:53:44;;;;;;;6.10;2.97;;;;;;;;;;1014077;29;20404;-75
2023/09/17 00:54:15;;;;;;;1.15;1.10;;;;;;;;;;1015696;29;20106;-76
2023/09/17 00:54:47;;;;;;;2.05;1.75;;;;;;;;;;1017147;29;20110;-76
2023/09/17 00:55:17;;;;;;;3.45;3.20;;;;;;;;;;1020955;29;20377;-75
2023/09/17 00:55:48;;;;;;;0.82;0.70;;;;;;;;;;1021300;29;20027;-75
2023/09/17 00:56:19;;;;;;;4.15;1.30;;;;;;;;;;1020761;29;20023;-75
2023/09/17 00:56:53;;;;;;;3.45;3.15;;;;;;;;;;1017763;29;20563;-77
2023/09/17 00:57:24;;;;;;;0.60;0.60;;;;;;;;;;1016820;29;20032;-76
2023/09/17 00:57:55;;;;;;;0.50;0.50;;;;;;;;;;1016828;29;20032;-76
2023/09/17 00:58:28;;;;;;;1.58;1.48;;;;;;;;;;1033963;28;20029;-77
2023/09/17 00:58:59;;;;;;;2.05;1.90;;;;;;;;;;1032273;28;20049;-75
2023/09/17 00:59:30;;;;;;;1.17;0.95;;;;;;;;;;1032626;28;20026;-75
2023/09/17 01:00:03;;;;;;;2.20;1.92;;;;;;;;;;1030632;28;20107;-76
2023/09/17 01:00:36;;;;;;;0.28;0.28;;;;;;;;;;1016985;28;20107;-76
2023/09/17 01:01:08;;;;;;;1.10;1.08;;;;;;;;;;1020688;29;20034;-75
2023/09/17 01:01:38;;;;;;;1.15;1.08;;;;;;;;;;1020930;29;20023;-76
2023/09/17 01:02:09;;;;;;;2.20;1.65;;;;;;;;;;1021000;29;20023;-77
2023/09/17 01:02:40;;;;;;;0.57;0.57;;;;;;;;;;1021624;29;20457;-75
2023/09/17 01:03:12;;;;;;;4.35;1.90;;;;;;;;;;1021146;29;20020;-75
2023/09/17 01:03:44;;;;;;;1.75;1.65;;;;;;;;;;1020158;29;20030;-76
2023/09/17 01:04:14;;;;;;;3.95;2.80;;;;;;;;;;1020866;29;20031;-76
2023/09/17 01:04:49;;;;;;;1.33;1.23;;;;;;;;;;1021023;29;20483;-76
2023/09/17 01:05:20;;;;;;;1.77;0.28;;;;;;;;;;1020994;29;20074;-75
2023/09/17 01:05:51;;;;;;;1.65;1.02;;;;;;;;;;1021984;29;20529;-77
2023/09/17 01:06:21;;;;;;;8.68;1.70;;;;;;;;;;1021008;29;20038;-76
2023/09/17 01:06:55;;;;;;;1.20;1.10;;;;;;;;;;1020848;29;20032;-76
2023/09/17 01:07:25;;;;;;;0.77;0.60;;;;;;;;;;1021030;29;20027;-76
2023/09/17 01:07:56;;;;;;;1.40;1.30;;;;;;;;;;1015638;28;20475;-76
2023/09/17 01:08:27;;;;;;;1.63;1.52;;;;;;;;;;1016942;29;20024;-75
2023/09/17 01:08:58;;;;;;;1.17;1.08;;;;;;;;;;1017264;29;20549;-77
2023/09/17 01:09:29;;;;;;;1.55;1.35;;;;;;;;;;1017371;29;20020;-76
2023/09/17 01:09:59;;;;;;;5.70;2.08;;;;;;;;;;1021468;29;20494;-75
2023/09/17 01:10:30;;;;;;;2.58;2.38;;;;;;;;;;1020000;29;20176;-75
2023/09/17 01:11:02;;;;;;;0.43;0.43;;;;;;;;;;1020906;29;20024;-76
2023/09/17 01:11:34;;;;;;;1.33;1.27;;;;;;;;;;1020974;29;20031;-76
2023/09/17 01:12:05;;;;;;;1.38;1.13;;;;;;;;;;1021084;29;20098;-76
2023/09/17 01:12:36;;;;;;;0.20;0.20;;;;;;;;;;1020245;29;20023;-76
2023/09/17 01:13:06;;;;;;;4.22;1.17;;;;;;;;;;1020895;29;20027;-75
2023/09/17 01:13:40;;;;;;;0.88;0.88;;;;;;;;;;1020944;29;20015;-75
2023/09/17 01:14:14;;;;;;;2.10;1.90;;;;;;;;;;1020814;29;20028;-76
2023/09/17 01:14:46;;;;;;;1.67;1.58;;;;;;;;;;1021015;29;20427;-75
2023/09/17 01:15:17;;;;;;;4.20;2.53;;;;;;;;;;1020877;29;20032;-75
2023/09/17 01:15:47;;;;;;;0.90;0.73;;;;;;;;;;1016847;28;20035;-77
2023/09/17 01:16:17;;;;;;;0.90;0.90;;;;;;;;;;1017357;29;20146;-76
2023/09/17 01:16:48;;;;;;;0.68;0.63;;;;;;;;;;1017295;29;20075;-75
2023/09/17 01:17:18;;;;;;;5.57;1.95;;;;;;;;;;1016743;29;20471;-76
2023/09/17 01:17:54;;;;;;;1.73;1.60;;;;;;;;;;1020459;29;20058;-75
2023/09/17 01:18:27;;;;;;;4.07;1.40;;;;;;;;;;1020848;29;20498;-76
2023/09/17 01:19:00;;;;;;;4.70;1.27;;;;;;;;;;1020972;29;20031;-75
2023/09/17 01:19:32;;;;;;;3.92;1.90;;;;;;;;;;1020867;29;20077;-75
2023/09/17 01:20:24;;;;;;;1.75;1.35;;;;;;;;;;1020902;29;20074;-76
2023/09/17 01:21:07;;;;;;;0.88;0.88;;;;;;;;;;1020621;29;20594;-74
2023/09/17 01:21:40;;;;;;;1.35;1.33;;;;;;;;;;1020028;29;20031;-75
2023/09/17 01:22:13;;;;;;;1.27;1.17;;;;;;;;;;1016468;29;20020;-74
2023/09/17 01:22:46;;;;;;;0.55;0.55;;;;;;;;;;1014780;29;20024;-75
2023/09/17 01:23:27;;;;;;;1.15;0.45;;;;;;;;;;1013980;29;20134;-75
2023/09/17 01:24:15;;;;;;;1.13;1.10;;;;;;;;;;1016956;29;20484;-76
2023/09/17 01:24:54;;;;;;;3.50;2.13;;;;;;;;;;1016016;28;20032;-76
2023/09/17 01:25:42;;;;;;;4.88;4.50;;;;;;;;;;1017059;29;20028;-75
2023/09/17 01:26:38;;;;;;;2.20;2.00;;;;;;;;;;1020835;29;20035;-76
2023/09/17 01:27:10;;;;;;;1.38;1.27;;;;;;;;;;1021337;29;20630;-75
2023/09/17 01:27:44;;;;;;;1.88;1.73;;;;;;;;;;1020937;29;20025;-75
2023/09/17 01:28:15;;;;;;;5.88;2.30;;;;;;;;;;1016456;29;20024;-77
2023/09/17 01:28:45;;;;;;;7.82;2.47;;;;;;;;;;1016691;29;20031;-76
2023/09/17 01:29:23;;;;;;;0.88;0.82;;;;;;;;;;1017386;28;20028;-75
2023/09/17 01:29:54;;;;;;;7.28;2.30;;;;;;;;;;1018488;29;20035;-75
2023/09/17 01:30:24;;;;;;;3.78;3.33;;;;;;;;;;1020901;29;20456;-75
2023/09/17 01:30:55;;;;;;;2.55;1.70;;;;;;;;;;1021113;29;20023;-75
2023/09/17 01:31:26;;;;;;;1.67;1.38;;;;;;;;;;1021417;29;20546;-75
2023/09/17 01:31:57;;;;;;;2.42;0.88;;;;;;;;;;1017011;29;20024;-75
2023/09/17 01:32:27;;;;;;;1.95;1.85;;;;;;;;;;1016898;29;20484;-76
2023/09/17 01:32:59;;;;;;;3.10;2.80;;;;;;;;;;1016077;29;20038;-75
2023/09/17 01:33:29;;;;;;;1.58;1.48;;;;;;;;;;1016663;29;20032;-76
2023/09/17 01:34:00;;;;;;;16.35;2.15;;;;;;;;;;1021081;29;20024;-76
2023/09/17 01:34:37;;;;;;;3.28;2.47;;;;;;;;;;1019579;29;20110;-75
2023/09/17 01:35:09;;;;;;;2.92;1.95;;;;;;;;;;1020531;29;20498;-75
2023/09/17 01:36:01;;;;;;;1.15;1.10;;;;;;;;;;1021585;29;20016;-75
2023/09/17 01:36:33;;;;;;;2.25;1.40;;;;;;;;;;1020642;29;20038;-76
2023/09/17 01:37:23;;;;;;;3.92;0.82;;;;;;;;;;1021239;29;20023;-75
2023/09/17 01:37:54;;;;;;;0.20;0.20;;;;;;;;;;1018464;29;20028;-75
2023/09/17 01:38:31;;;;;;;1.75;1.65;;;;;;;;;;1019953;29;20077;-75
2023/09/17 01:39:04;;;;;;;0.10;0.10;;;;;;;;;;1020821;29;20121;-75
2023/09/17 01:39:40;;;;;;;0.70;0.70;;;;;;;;;;1021375;29;20502;-75
2023/09/17 01:40:14;;;;;;;0.68;0.68;;;;;;;;;;1020995;29;20028;-74
2023/09/17 01:40:48;;;;;;;1.38;1.27;;;;;;;;;;1021344;29;20024;-74
2023/09/17 01:41:19;;;;;;;1.08;0.98;;;;;;;;;;1021716;29;20023;-74
2023/09/17 01:41:49;;;;;;;2.08;1.55;;;;;;;;;;1020674;29;20031;-76
2023/09/17 01:42:20;;;;;;;1.67;1.58;;;;;;;;;;1016817;28;20022;-76
2023/09/17 01:42:51;;;;;;;1.98;1.70;;;;;;;;;;1012531;29;20508;-75
2023/09/17 01:43:23;;;;;;;3.10;1.85;;;;;;;;;;1029089;28;20045;-76
2023/09/17 01:43:54;;;;;;;1.08;0.88;;;;;;;;;;1029449;28;20101;-74
2023/09/17 01:44:25;;;;;;;1.75;1.63;;;;;;;;;;1033459;28;20128;-75
2023/09/17 01:44:56;;;;;;;1.25;1.23;;;;;;;;;;1036347;28;20568;-76
2023/09/17 01:45:28;;;;;;;2.55;2.35;;;;;;;;;;1020933;29;20024;-74
2023/09/17 01:45:59;;;;;;;3.15;2.65;;;;;;;;;;1022009;29;20158;-77
2023/09/17 01:46:31;;;;;;;0.93;0.88;;;;;;;;;;1020063;29;20089;-76
2023/09/17 01:47:03;;;;;;;2.80;1.98;;;;;;;;;;1020845;29;20420;-76
2023/09/17 01:47:34;;;;;;;0.80;0.80;;;;;;;;;;1016436;29;20020;-76
2023/09/17 01:48:05;;;;;;;1.02;1.02;;;;;;;;;;1012561;29;20029;-74
2023/09/17 01:48:38;;;;;;;0.55;0.55;;;;;;;;;;1012982;29;20017;-76
2023/09/17 01:49:12;;;;;;;1.65;1.55;;;;;;;;;;1012804;29;20548;-75
2023/09/17 01:49:42;;;;;;;1.17;0.50;;;;;;;;;;1017859;29;20035;-76
2023/09/17 01:50:15;;;;;;;1.38;1.33;;;;;;;;;;1020750;29;20019;-75
2023/09/17 01:50:47;;;;;;;1.27;1.17;;;;;;;;;;1020850;29;20042;-75
2023/09/17 01:51:17;;;;;;;2.05;1.27;;;;;;;;;;1020821;29;20023;-75
2023/09/17 01:51:48;;;;;;;0.68;0.57;;;;;;;;;;1016645;29;20390;-75
2023/09/17 01:52:23;;;;;;;0.70;0.70;;;;;;;;;;1016907;29;20452;-75
2023/09/17 01:52:53;;;;;;;2.35;1.60;;;;;;;;;;1016341;29;20044;-74
2023/09/17 01:53:24;;;;;;;1.83;1.73;;;;;;;;;;1017360;29;20446;-74
2023/09/17 01:53:54;;;;;;;4.72;1.85;;;;;;;;;;1020777;29;20446;-75
2023/09/17 01:54:25;;;;;;;0.75;0.75;;;;;;;;;;1021061;29;20019;-74
2023/09/17 01:54:55;;;;;;;2.78;1.95;;;;;;;;;;1016974;28;20024;-75
2023/09/17 01:55:26;;;;;;;3.03;2.30;;;;;;;;;;1017044;29;20058;-74
2023/09/17 01:55:56;;;;;;;2.28;2.08;;;;;;;;;;1012944;29;20083;-74
2023/09/17 01:56:27;;;;;;;0.25;0.25;;;;;;;;;;1012684;29;20031;-74
2023/09/17 01:56:57;;;;;;;1.60;1.35;;;;;;;;;;1016632;29;20024;-73
2023/09/17 01:57:28;;;;;;;30.38;2.67;;;;;;;;;;1014774;29;20028;-75
2023/09/17 01:57:58;;;;;;;0.22;0.22;;;;;;;;;;1014976;29;20025;-75
2023/09/17 01:58:29;;;;;;;1.30;1.23;;;;;;;;;;1018636;29;20055;-75
2023/09/17 01:58:59;;;;;;;0.10;0.10;;;;;;;;;;1014966;29;20118;-75
2023/09/17 01:59:30;;;;;;;2.40;1.75;;;;;;;;;;1018386;28;20024;-75
2023/09/17 02:00:01;;;;;;;2.88;1.70;;;;;;;;;;1019148;28;20031;-75
2023/09/17 02:00:31;;;;;;;0.52;0.52;;;;;;;;;;1016872;29;20024;-76
2023/09/17 02:01:02;;;;;;;0.28;0.28;;;;;;;;;;1021441;29;20559;-74
2023/09/17 02:01:33;;;;;;;0.45;0.45;;;;;;;;;;1021208;29;20306;-75
2023/09/17 02:02:04;;;;;;;1.30;1.20;;;;;;;;;;1021144;29;20027;-74
2023/09/17 02:02:34;;;;;;;0.85;0.85;;;;;;;;;;1020676;29;20085;-74
2023/09/17 02:03:05;;;;;;;2.60;2.40;;;;;;;;;;1020801;29;20432;-74
2023/09/17 02:03:35;;;;;;;0.20;0.20;;;;;;;;;;1021105;29;20035;-75
2023/09/17 02:04:06;;;;;;;1.17;1.10;;;;;;;;;;1021179;29;20028;-75
2023/09/17 02:04:36;;;;;;;1.02;1.02;;;;;;;;;;1017101;29;20090;-75
2023/09/17 02:05:07;;;;;;;0.40;0.40;;;;;;;;;;1016895;29;20106;-76
2023/09/17 02:05:38;;;;;;;3.63;2.58;;;;;;;;;;1017059;29;20547;-75
2023/09/17 02:06:08;;;;;;;0.75;0.65;;;;;;;;;;1017089;29;20023;-74
2023/09/17 02:06:38;;;;;;;0.75;0.75;;;;;;;;;;1020997;29;20023;-75
2023/09/17 02:07:09;;;;;;;0.43;0.43;;;;;;;;;;1017038;29;20028;-74
2023/09/17 02:07:39;;;;;;;0.95;0.95;;;;;;;;;;1014697;29;20024;-75
2023/09/17 02:08:10;;;;;;;1.75;0.57;;;;;;;;;;1033235;28;20017;-76
2023/09/17 02:08:40;;;;;;;1.52;1.45;;;;;;;;;;1033123;28;20022;-75
2023/09/17 02:09:11;;;;;;;5.82;1.58;;;;;;;;;;1037152;28;20030;-74
2023/09/17 02:09:41;;;;;;;1.35;1.25;;;;;;;;;;1036998;28;20113;-75
2023/09/17 02:10:12;;;;;;;0.68;0.68;;;;;;;;;;1021171;29;20028;-76
2023/09/17 02:10:43;;;;;;;1.17;0.95;;;;;;;;;;1021236;29;20446;-76
2023/09/17 02:11:13;;;;;;;0.93;0.52;;;;;;;;;;1021166;29;20034;-75
2023/09/17 02:11:44;;;;;;;1.48;1.38;;;;;;;;;;1020841;29;20483;-74
2023/09/17 02:12:14;;;;;;;1.02;1.02;;;;;;;;;;1020609;29;20095;-75
2023/09/17 02:12:45;;;;;;;0.98;0.68;;;;;;;;;;1021151;29;20199;-75
2023/09/17 02:13:15;;;;;;;1.17;1.15;;;;;;;;;;1021224;29;20055;-77
2023/09/17 02:13:46;;;;;;;1.60;0.50;;;;;;;;;;1021293;29;20382;-75
2023/09/17 02:14:16;;;;;;;0.30;0.30;;;;;;;;;;1020942;29;20045;-75
2023/09/17 02:14:47;;;;;;;3.13;0.52;;;;;;;;;;1020841;29;20121;-75
2023/09/17 02:15:18;;;;;;;0.98;0.45;;;;;;;;;;1020769;29;20118;-73
2023/09/17 02:15:49;;;;;;;1.15;0.75;;;;;;;;;;1021011;29;20046;-75
2023/09/17 02:16:20;;;;;;;1.77;1.67;;;;;;;;;;1021172;29;20484;-75
2023/09/17 02:16:51;;;;;;;1.33;0.63;;;;;;;;;;1021075;29;20448;-74
2023/09/17 02:17:22;;;;;;;0.95;0.88;;;;;;;;;;1021253;29;20023;-76
2023/09/17 02:17:52;;;;;;;3.38;2.63;;;;;;;;;;1020919;29;20117;-75
2023/09/17 02:18:23;;;;;;;0.52;0.52;;;;;;;;;;1016499;28;20508;-75
2023/09/17 02:18:54;;;;;;;1.48;1.38;;;;;;;;;;1016630;29;20122;-76
2023/09/17 02:19:25;;;;;;;3.30;2.20;;;;;;;;;;1015755;29;20020;-74
2023/09/17 02:19:55;;;;;;;0.10;0.10;;;;;;;;;;1016739;29;20032;-74
2023/09/17 02:20:26;;;;;;;1.10;1.10;;;;;;;;;;1016496;28;20031;-74
2023/09/17 02:20:56;;;;;;;1.02;0.80;;;;;;;;;;1016882;29;20028;-73
2023/09/17 02:21:27;;;;;;;2.72;2.53;;;;;;;;;;1013011;29;20103;-75
2023/09/17 02:21:57;;;;;;;0.73;0.73;;;;;;;;;;1013176;29;20130;-75
2023/09/17 02:22:28;;;;;;;2.70;2.50;;;;;;;;;;1013233;29;20035;-75
2023/09/17 02:22:58;;;;;;;0.45;0.45;;;;;;;;;;1012537;29;20020;-76
2023/09/17 02:23:29;;;;;;;1.48;1.35;;;;;;;;;;1018719;29;20620;-74
2023/09/17 02:23:59;;;;;;;1.88;1.67;;;;;;;;;;1018847;29;20490;-75
2023/09/17 02:24:29;;;;;;;7.03;2.03;;;;;;;;;;1020675;29;20397;-75
2023/09/17 02:25:00;;;;;;;2.15;1.95;;;;;;;;;;1020764;29;20028;-74
2023/09/17 02:25:30;;;;;;;3.03;2.47;;;;;;;;;;1021162;29;20376;-73
2023/09/17 02:26:01;;;;;;;2.42;2.25;;;;;;;;;;1021233;29;20639;-74
2023/09/17 02:26:31;;;;;;;1.65;1.55;;;;;;;;;;1021161;29;20028;-73
2023/09/17 02:27:02;;;;;;;0.52;0.52;;;;;;;;;;1019845;29;20095;-73
2023/09/17 02:27:33;;;;;;;2.10;1.95;;;;;;;;;;1020699;29;20054;-73
2023/09/17 02:28:04;;;;;;;1.08;1.08;;;;;;;;;;1020716;29;20023;-74
2023/09/17 02:28:34;;;;;;;0.82;0.82;;;;;;;;;;1021081;29;20118;-75
2023/09/17 02:29:06;;;;;;;0.30;0.30;;;;;;;;;;1021206;28;20027;-74
2023/09/17 02:29:36;;;;;;;1.08;0.80;;;;;;;;;;1021980;28;20040;-75
2023/09/17 02:30:08;;;;;;;1.38;1.10;;;;;;;;;;1021555;29;20011;-75
2023/09/17 02:30:38;;;;;;;3.83;1.98;;;;;;;;;;1021760;29;20459;-73
2023/09/17 02:31:09;;;;;;;1.45;1.35;;;;;;;;;;1021390;29;20038;-73
2023/09/17 02:31:39;;;;;;;1.35;1.25;;;;;;;;;;1021405;29;20026;-73
2023/09/17 02:32:10;;;;;;;0.57;0.55;;;;;;;;;;1021537;29;20026;-74
2023/09/17 02:32:40;;;;;;;0.57;0.55;;;;;;;;;;1021877;29;20058;-74
2023/09/17 02:33:11;;;;;;;5.47;1.90;;;;;;;;;;1021888;29;20034;-74
2023/09/17 02:33:41;;;;;;;1.85;1.75;;;;;;;;;;1021670;29;20399;-74
2023/09/17 02:34:12;;;;;;;3.03;2.60;;;;;;;;;;1021292;29;20066;-75
2023/09/17 02:34:42;;;;;;;1.35;1.25;;;;;;;;;;1021406;29;20035;-75
2023/09/17 02:35:13;;;;;;;1.65;1.20;;;;;;;;;;1017439;29;20023;-75
2023/09/17 02:35:43;;;;;;;0.50;0.50;;;;;;;;;;1013717;28;20056;-74
2023/09/17 02:36:14;;;;;;;2.47;2.13;;;;;;;;;;1013663;29;20063;-74
2023/09/17 02:36:44;;;;;;;14.70;0.60;;;;;;;;;;1009677;29;20024;-74
2023/09/17 02:37:15;;;;;;;2.17;1.85;;;;;;;;;;1015404;29;20076;-74
2023/09/17 02:37:45;;;;;;;1.85;1.58;;;;;;;;;;1014953;29;20036;-74
2023/09/17 02:38:17;;;;;;;2.47;2.28;;;;;;;;;;1017585;29;20035;-75
2023/09/17 02:38:47;;;;;;;7.68;2.15;;;;;;;;;;1021862;29;20027;-74
2023/09/17 02:39:18;;;;;;;1.38;1.23;;;;;;;;;;1021891;29;20034;-74
2023/09/17 02:39:48;;;;;;;1.13;1.02;;;;;;;;;;1018768;28;20015;-73
2023/09/17 02:40:19;;;;;;;3.92;1.00;;;;;;;;;;1021686;29;20027;-74
2023/09/17 02:40:49;;;;;;;0.05;0.03;;;;;;;;;;1021823;29;20034;-74
2023/09/17 02:41:20;;;;;;;2.22;1.75;;;;;;;;;;1026005;28;20387;-74
2023/09/17 02:41:50;;;;;;;4.85;1.65;;;;;;;;;;1016977;29;20481;-75
2023/09/17 02:42:21;;;;;;;3.33;1.17;;;;;;;;;;1017193;29;20055;-76
2023/09/17 02:42:52;;;;;;;2.55;0.85;;;;;;;;;;1016230;29;20504;-75
2023/09/17 02:43:22;;;;;;;0.20;0.20;;;;;;;;;;1017334;29;20111;-73
2023/09/17 02:43:53;;;;;;;3.38;1.50;;;;;;;;;;1021464;29;20078;-73
2023/09/17 02:44:23;;;;;;;2.15;1.92;;;;;;;;;;1022472;29;20031;-74
2023/09/17 02:44:53;;;;;;;2.13;1.98;;;;;;;;;;1021311;29;20050;-74
2023/09/17 02:45:24;;;;;;;1.40;0.77;;;;;;;;;;1021634;29;20026;-74
2023/09/17 02:45:56;;;;;;;1.45;0.75;;;;;;;;;;1017459;29;20028;-74
2023/09/17 02:46:26;;;;;;;1.65;1.50;;;;;;;;;;1017463;29;20047;-75
2023/09/17 02:46:57;;;;;;;0.93;0.93;;;;;;;;;;1017551;29;20475;-75
2023/09/17 02:47:27;;;;;;;2.53;0.85;;;;;;;;;;1017523;29;20439;-75
2023/09/17 02:47:58;;;;;;;0.52;0.52;;;;;;;;;;1021424;29;21510;-75
2023/09/17 02:48:28;;;;;;;0.43;0.43;;;;;;;;;;1017070;28;20365;-75
2023/09/17 02:49:00;;;;;;;0.82;0.82;;;;;;;;;;1015632;29;20012;-74
2023/09/17 02:49:30;;;;;;;1.02;0.82;;;;;;;;;;1017536;29;20027;-74
2023/09/17 02:50:01;;;;;;;1.25;1.08;;;;;;;;;;1017779;29;20031;-75
2023/09/17 02:50:31;;;;;;;2.33;1.90;;;;;;;;;;1021517;29;20087;-74
2023/09/17 02:51:02;;;;;;;0.35;0.35;;;;;;;;;;1021420;29;20511;-74
2023/09/17 02:51:33;;;;;;;0.63;0.63;;;;;;;;;;1021290;29;20032;-74
2023/09/17 02:52:04;;;;;;;0.90;0.90;;;;;;;;;;1021732;29;20530;-76
2023/09/17 02:52:35;;;;;;;1.15;1.05;;;;;;;;;;1016195;29;20029;-74
2023/09/17 02:53:06;;;;;;;3.03;2.15;;;;;;;;;;1013606;29;20020;-75
2023/09/17 02:53:36;;;;;;;10.55;2.15;;;;;;;;;;1013702;29;20021;-76
2023/09/17 02:54:07;;;;;;;5.10;3.80;;;;;;;;;;1013185;29;20028;-75
2023/09/17 02:54:37;;;;;;;1.67;1.58;;;;;;;;;;1013312;29;20032;-74
2023/09/17 02:55:08;;;;;;;1.58;0.98;;;;;;;;;;1017247;29;20074;-74
2023/09/17 02:55:39;;;;;;;0.82;0.82;;;;;;;;;;1016168;28;20028;-73
2023/09/17 02:56:09;;;;;;;1.33;1.23;;;;;;;;;;1017087;29;20464;-74
2023/09/17 02:56:40;;;;;;;1.10;1.05;;;;;;;;;;1018196;29;20034;-74
2023/09/17 02:57:10;;;;;;;1.52;1.42;;;;;;;;;;1017355;29;20036;-74
2023/09/17 02:57:41;;;;;;;0.22;0.22;;;;;;;;;;1021381;29;20391;-74
2023/09/17 02:58:12;;;;;;;3.47;2.00;;;;;;;;;;1021339;29;20056;-75
2023/09/17 02:58:43;;;;;;;2.08;1.83;;;;;;;;;;1020613;29;20188;-75
2023/09/17 02:59:13;;;;;;;3.20;1.00;;;;;;;;;;1021365;29;20027;-74
2023/09/17 02:59:44;;;;;;;0.50;0.50;;;;;;;;;;1023337;28;20545;-74
2023/09/17 03:00:17;;;;;;;1.27;1.17;;;;;;;;;;1021167;29;20387;-74
2023/09/17 03:00:47;;;;;;;0.40;0.40;;;;;;;;;;1020429;29;20508;-74
2023/09/17 03:01:18;;;;;;;1.50;1.40;;;;;;;;;;1021334;29;20034;-74
2023/09/17 03:01:48;;;;;;;1.10;1.05;;;;;;;;;;1021358;29;20051;-74
2023/09/17 03:02:19;;;;;;;1.90;1.25;;;;;;;;;;1021500;28;20055;-74
2023/09/17 03:02:54;;;;;;;3.80;3.50;;;;;;;;;;1017074;29;20469;-74
2023/09/17 03:03:24;;;;;;;1.77;1.25;;;;;;;;;;1033667;28;20025;-74
2023/09/17 03:03:55;;;;;;;1.55;1.45;;;;;;;;;;1034260;28;20026;-74
2023/09/17 03:04:26;;;;;;;1.02;0.93;;;;;;;;;;1037990;28;20030;-74
2023/09/17 03:04:58;;;;;;;1.23;1.13;;;;;;;;;;1037516;28;20040;-74
2023/09/17 03:05:28;;;;;;;1.02;0.98;;;;;;;;;;1017389;29;20030;-74
2023/09/17 03:05:59;;;;;;;1.73;1.63;;;;;;;;;;1017452;29;20035;-74
2023/09/17 03:06:33;;;;;;;1.83;1.73;;;;;;;;;;1017128;29;20498;-75
2023/09/17 03:07:04;;;;;;;1.75;1.65;;;;;;;;;;1016379;29;20027;-74
2023/09/17 03:07:35;;;;;;;1.10;0.88;;;;;;;;;;1016109;29;20032;-74
2023/09/17 03:08:09;;;;;;;0.75;0.75;;;;;;;;;;1020435;29;20028;-73
2023/09/17 03:08:42;;;;;;;1.20;0.88;;;;;;;;;;1020996;29;20154;-75